createdAt,value
2018-12-31T00:00:59.987Z,86.57
2018-12-31T00:03:28.644Z,86.88
2018-12-31T00:05:57.113Z,86.71
2018-12-31T00:08:25.732Z,86.82
2018-12-31T00:10:54.311Z,86.83
2018-12-31T00:13:22.787Z,86.87
2018-12-31T00:15:51.248Z,87.12
2018-12-31T00:18:19.823Z,87.19
2018-12-31T00:20:48.332Z,87.26
2018-12-31T00:23:17.214Z,87.39
2018-12-31T00:25:45.635Z,87.52
2018-12-31T00:28:14.486Z,87.32
2018-12-31T00:30:43.379Z,87.52
2018-12-31T00:33:11.801Z,87.47
2018-12-31T00:35:40.497Z,87.46
2018-12-31T00:38:08.935Z,87.55
2018-12-31T00:40:37.392Z,87.60
2018-12-31T00:43:06.041Z,87.82
2018-12-31T00:45:34.497Z,87.73
2018-12-31T00:48:03.035Z,87.73
2018-12-31T00:50:31.497Z,87.92
2018-12-31T00:53:00.055Z,87.76
2018-12-31T00:55:28.813Z,87.80
2018-12-31T00:57:57.314Z,87.80
2018-12-31T01:00:25.792Z,87.81
2018-12-31T01:02:54.343Z,87.81
2018-12-31T01:05:22.872Z,87.82
2018-12-31T01:07:51.735Z,87.79
2018-12-31T01:10:20.279Z,87.88
2018-12-31T01:12:48.819Z,87.87
2018-12-31T01:15:17.396Z,87.77
2018-12-31T01:17:45.872Z,87.91
2018-12-31T01:20:14.657Z,87.86
2018-12-31T01:22:43.178Z,87.63
2018-12-31T01:25:11.723Z,87.80
2018-12-31T01:27:40.286Z,87.88
2018-12-31T01:30:08.890Z,87.95
2018-12-31T01:32:37.362Z,88.15
2018-12-31T01:35:06.188Z,88.11
2018-12-31T01:37:34.971Z,88.06
2018-12-31T01:40:03.526Z,88.04
2018-12-31T01:42:32.018Z,88.00
2018-12-31T01:45:00.542Z,87.86
2018-12-31T01:47:29.031Z,88.01
2018-12-31T01:49:57.799Z,88.06
2018-12-31T01:52:26.272Z,88.05
2018-12-31T01:54:54.688Z,88.04
2018-12-31T01:57:23.181Z,88.14
2018-12-31T01:59:51.661Z,88.24
2018-12-31T02:02:20.101Z,88.23
2018-12-31T02:04:48.582Z,88.42
2018-12-31T02:07:17.071Z,88.59
2018-12-31T02:09:45.546Z,88.52
2018-12-31T02:12:14.334Z,88.75
2018-12-31T02:14:42.846Z,88.70
2018-12-31T02:17:11.335Z,88.78
2018-12-31T02:19:39.871Z,88.88
2018-12-31T02:22:08.393Z,89.08
2018-12-31T02:24:36.858Z,89.06
2018-12-31T02:27:05.740Z,89.27
2018-12-31T02:29:34.157Z,89.17
2018-12-31T02:32:02.700Z,89.50
2018-12-31T02:34:31.487Z,89.38
2018-12-31T02:37:19.295Z,89.56
2018-12-31T02:39:47.681Z,89.54
2018-12-31T02:42:16.168Z,89.70
2018-12-31T02:44:44.983Z,89.69
2018-12-31T02:47:15.173Z,89.68
2018-12-31T02:49:44.117Z,89.70
2018-12-31T02:52:12.620Z,89.96
2018-12-31T02:54:41.187Z,89.94
2018-12-31T02:57:09.658Z,90.04
2018-12-31T02:59:38.536Z,89.96
2018-12-31T03:02:06.995Z,90.12
2018-12-31T03:04:35.540Z,90.11
2018-12-31T03:07:04.085Z,90.14
2018-12-31T03:09:32.540Z,90.11
2018-12-31T03:12:00.999Z,90.22
2018-12-31T03:17:23.833Z,90.45
2018-12-31T03:19:52.300Z,90.59
2018-12-31T03:22:20.823Z,90.68
2018-12-31T03:24:49.438Z,90.65
2018-12-31T03:27:18.151Z,90.74
2018-12-31T03:29:46.813Z,90.66
2018-12-31T03:32:15.329Z,90.91
2018-12-31T03:34:43.825Z,90.81
2018-12-31T03:37:12.312Z,90.86
2018-12-31T03:39:40.749Z,91.12
2018-12-31T03:42:09.768Z,91.20
2018-12-31T03:44:38.367Z,91.23
2018-12-31T03:47:06.831Z,91.29
2018-12-31T03:49:35.354Z,91.34
2018-12-31T03:52:03.966Z,91.18
2018-12-31T03:54:32.411Z,91.42
2018-12-31T03:57:00.839Z,91.46
2018-12-31T03:59:29.653Z,91.44
2018-12-31T04:01:58.145Z,91.41
2018-12-31T04:04:26.767Z,91.51
2018-12-31T04:06:55.515Z,91.37
2018-12-31T04:09:23.916Z,91.46
2018-12-31T04:11:52.354Z,91.36
2018-12-31T04:14:20.813Z,91.56
2018-12-31T04:16:49.663Z,91.62
2018-12-31T04:19:18.124Z,91.55
2018-12-31T04:21:46.531Z,91.72
2018-12-31T04:24:15.106Z,91.63
2018-12-31T04:26:43.562Z,91.73
2018-12-31T04:29:11.991Z,91.72
2018-12-31T04:31:40.438Z,91.85
2018-12-31T04:34:08.983Z,91.86
2018-12-31T04:36:37.535Z,91.92
2018-12-31T04:39:45.979Z,92.17
2018-12-31T04:42:14.510Z,92.10
2018-12-31T04:44:43.020Z,92.17
2018-12-31T04:47:11.466Z,92.39
2018-12-31T04:49:40.475Z,92.10
2018-12-31T04:52:08.928Z,92.39
2018-12-31T04:54:37.849Z,92.61
2018-12-31T04:57:06.385Z,92.62
2018-12-31T04:59:34.949Z,92.50
2018-12-31T05:02:03.459Z,92.42
2018-12-31T05:04:31.988Z,92.43
2018-12-31T05:07:00.490Z,92.62
2018-12-31T05:09:28.959Z,92.38
2018-12-31T05:11:57.508Z,92.35
2018-12-31T05:14:26.068Z,92.52
2018-12-31T05:16:54.574Z,92.63
2018-12-31T05:19:23.024Z,92.65
2018-12-31T05:21:51.658Z,92.68
2018-12-31T05:24:20.191Z,92.76
2018-12-31T05:26:48.696Z,93.02
2018-12-31T05:29:17.179Z,92.96
2018-12-31T05:31:45.714Z,92.98
2018-12-31T05:34:14.242Z,93.08
2018-12-31T05:36:42.881Z,93.01
2018-12-31T05:39:11.358Z,93.10
2018-12-31T05:41:39.776Z,93.10
2018-12-31T05:44:08.232Z,93.12
2018-12-31T05:46:36.706Z,93.03
2018-12-31T05:49:05.164Z,93.14
2018-12-31T05:51:33.628Z,93.20
2018-12-31T05:54:02.069Z,93.37
2018-12-31T05:56:30.933Z,93.33
2018-12-31T05:58:59.376Z,93.27
2018-12-31T06:01:27.967Z,93.49
2018-12-31T06:03:56.450Z,93.33
2018-12-31T06:06:24.814Z,93.47
2018-12-31T06:08:53.555Z,93.47
2018-12-31T06:11:22.330Z,93.64
2018-12-31T06:13:50.826Z,93.56
2018-12-31T06:16:19.340Z,93.56
2018-12-31T06:18:47.811Z,93.40
2018-12-31T06:21:16.271Z,93.44
2018-12-31T06:23:44.872Z,93.48
2018-12-31T06:26:13.416Z,93.57
2018-12-31T06:28:41.910Z,93.75
2018-12-31T06:31:10.460Z,93.73
2018-12-31T06:33:38.976Z,93.70
2018-12-31T06:36:07.557Z,93.67
2018-12-31T06:38:36.362Z,93.69
2018-12-31T06:41:04.877Z,93.72
2018-12-31T06:43:33.444Z,93.92
2018-12-31T06:46:02.068Z,93.90
2018-12-31T06:48:30.510Z,93.83
2018-12-31T06:50:59.069Z,93.96
2018-12-31T06:53:27.667Z,93.88
2018-12-31T06:55:56.140Z,93.94
2018-12-31T06:58:25.484Z,94.15
2018-12-31T07:00:55.155Z,94.22
2018-12-31T07:03:23.599Z,94.49
2018-12-31T07:05:52.130Z,94.27
2018-12-31T07:08:20.603Z,94.52
2018-12-31T07:10:49.218Z,94.60
2018-12-31T07:13:17.719Z,94.57
2018-12-31T07:15:46.173Z,94.70
2018-12-31T07:20:50.066Z,94.84
2018-12-31T07:23:18.649Z,94.82
2018-12-31T07:25:47.183Z,94.98
2018-12-31T07:28:15.741Z,95.06
2018-12-31T07:30:44.214Z,94.97
2018-12-31T07:33:12.687Z,95.11
2018-12-31T07:35:41.154Z,95.29
2018-12-31T07:38:09.668Z,95.26
2018-12-31T07:40:38.159Z,95.10
2018-12-31T07:43:06.680Z,95.28
2018-12-31T07:45:35.229Z,95.48
2018-12-31T07:48:03.747Z,95.41
2018-12-31T07:50:32.405Z,95.42
2018-12-31T07:53:00.903Z,95.27
2018-12-31T07:55:29.356Z,95.51
2018-12-31T07:57:58.011Z,95.10
2018-12-31T08:00:26.464Z,95.05
2018-12-31T08:02:55.006Z,95.18
2018-12-31T08:05:23.477Z,95.12
2018-12-31T08:07:51.933Z,95.15
2018-12-31T08:10:20.518Z,95.12
2018-12-31T08:12:48.992Z,95.10
2018-12-31T08:15:17.463Z,95.18
2018-12-31T08:17:45.956Z,95.17
2018-12-31T08:20:14.530Z,95.06
2018-12-31T08:22:43.079Z,94.93
2018-12-31T08:25:11.563Z,94.86
2018-12-31T08:27:40.005Z,94.81
2018-12-31T08:30:08.652Z,94.69
2018-12-31T08:32:37.340Z,94.55
2018-12-31T08:35:05.910Z,94.63
2018-12-31T08:37:34.605Z,94.46
2018-12-31T08:40:03.117Z,94.46
2018-12-31T08:42:32.044Z,94.29
2018-12-31T08:45:00.506Z,94.34
2018-12-31T08:47:29.121Z,94.31
2018-12-31T08:49:57.619Z,94.36
2018-12-31T08:52:26.025Z,94.10
2018-12-31T08:54:54.567Z,94.10
2018-12-31T08:57:22.957Z,93.97
2018-12-31T08:59:51.521Z,93.94
2018-12-31T09:02:20.121Z,93.76
2018-12-31T09:04:48.557Z,93.64
2018-12-31T09:07:16.995Z,93.48
2018-12-31T09:09:45.576Z,93.14
2018-12-31T09:12:14.038Z,92.81
2018-12-31T09:14:42.581Z,92.50
2018-12-31T09:17:11.125Z,92.47
2018-12-31T09:19:39.655Z,92.64
2018-12-31T09:22:08.245Z,92.44
2018-12-31T09:24:44.482Z,93.01
2018-12-31T09:27:07.014Z,93.24
2018-12-31T09:29:35.559Z,93.24
2018-12-31T09:32:04.019Z,93.28
2018-12-31T09:34:32.513Z,93.34
2018-12-31T09:37:01.090Z,93.67
2018-12-31T09:39:29.614Z,93.87
2018-12-31T09:41:58.193Z,93.83
2018-12-31T09:44:26.676Z,93.46
2018-12-31T09:46:55.449Z,92.85
2018-12-31T09:49:24.006Z,92.20
2018-12-31T09:51:52.525Z,92.71
2018-12-31T09:54:20.979Z,92.61
2018-12-31T09:56:49.552Z,91.57
2018-12-31T09:59:18.065Z,92.19
2018-12-31T10:01:46.620Z,92.26
2018-12-31T10:04:15.241Z,92.03
2018-12-31T10:06:43.858Z,92.06
2018-12-31T10:09:12.446Z,91.27
2018-12-31T10:11:41.056Z,91.24
2018-12-31T10:14:09.586Z,91.14
2018-12-31T10:16:38.146Z,90.47
2018-12-31T10:19:06.763Z,89.72
2018-12-31T10:21:40.887Z,89.12
2018-12-31T10:24:05.687Z,89.14
2018-12-31T10:26:34.159Z,88.45
2018-12-31T10:29:02.825Z,88.42
2018-12-31T10:31:31.328Z,88.37
2018-12-31T10:33:59.781Z,87.60
2018-12-31T10:36:28.293Z,87.18
2018-12-31T10:38:56.740Z,85.50
2018-12-31T10:41:25.205Z,85.78
2018-12-31T10:43:53.670Z,84.61
2018-12-31T10:46:22.614Z,84.99
2018-12-31T10:48:51.271Z,84.54
2018-12-31T10:51:19.841Z,84.63
2018-12-31T10:53:48.348Z,84.31
2018-12-31T10:56:16.902Z,84.51
2018-12-31T10:58:45.507Z,85.06
2018-12-31T11:01:13.950Z,84.96
2018-12-31T11:03:42.514Z,85.10
2018-12-31T11:06:11.048Z,84.94
2018-12-31T11:08:39.550Z,84.87
2018-12-31T11:11:08.196Z,85.29
2018-12-31T11:13:36.836Z,85.16
2018-12-31T11:16:05.313Z,84.92
2018-12-31T11:18:33.909Z,85.04
2018-12-31T11:21:02.368Z,84.01
2018-12-31T11:23:30.945Z,84.24
2018-12-31T11:25:59.567Z,84.72
2018-12-31T11:28:28.207Z,83.83
2018-12-31T11:30:56.839Z,83.67
2018-12-31T11:33:25.422Z,83.21
2018-12-31T11:35:54.031Z,83.60
2018-12-31T11:38:22.599Z,82.71
2018-12-31T11:40:51.261Z,83.54
2018-12-31T11:43:19.753Z,82.77
2018-12-31T11:45:48.225Z,82.95
2018-12-31T11:48:16.746Z,82.65
2018-12-31T11:50:45.417Z,83.45
2018-12-31T11:53:13.980Z,83.48
2018-12-31T11:55:42.408Z,83.39
2018-12-31T11:58:11.009Z,83.02
2018-12-31T12:00:39.592Z,83.13
2018-12-31T12:03:08.047Z,83.40
2018-12-31T12:05:36.679Z,81.93
2018-12-31T12:08:05.195Z,81.75
2018-12-31T12:10:33.680Z,82.48
2018-12-31T12:13:02.135Z,81.66
2018-12-31T12:15:30.635Z,81.12
2018-12-31T12:18:00.896Z,80.90
2018-12-31T12:20:29.395Z,80.61
2018-12-31T12:22:57.910Z,80.22
2018-12-31T12:25:26.410Z,81.49
2018-12-31T12:27:54.825Z,82.60
2018-12-31T12:30:25.427Z,82.59
2018-12-31T12:35:42.990Z,83.07
2018-12-31T12:38:11.533Z,82.85
2018-12-31T12:40:40.083Z,82.84
2018-12-31T12:43:08.548Z,83.03
2018-12-31T12:48:31.548Z,83.35
2018-12-31T12:50:59.950Z,83.71
2018-12-31T12:53:28.448Z,84.18
2018-12-31T12:55:57.075Z,83.96
2018-12-31T12:58:25.595Z,84.12
2018-12-31T13:00:54.311Z,83.72
2018-12-31T13:03:22.851Z,83.75
2018-12-31T13:05:51.475Z,83.89
2018-12-31T13:08:20.042Z,83.97
2018-12-31T13:10:48.513Z,83.69
2018-12-31T13:13:18.978Z,83.47
2018-12-31T13:15:47.700Z,83.00
2018-12-31T13:18:16.194Z,83.03
2018-12-31T13:20:44.830Z,83.31
2018-12-31T13:23:13.382Z,83.08
2018-12-31T13:25:42.021Z,83.33
2018-12-31T13:28:10.726Z,83.47
2018-12-31T13:30:39.262Z,83.46
2018-12-31T13:33:08.214Z,83.49
2018-12-31T13:35:36.794Z,83.57
2018-12-31T13:38:07.138Z,83.46
2018-12-31T13:40:35.593Z,83.04
2018-12-31T13:43:04.170Z,82.88
2018-12-31T13:45:32.772Z,81.99
2018-12-31T13:48:01.529Z,82.61
2018-12-31T13:50:31.990Z,82.43
2018-12-31T13:53:00.723Z,82.63
2018-12-31T13:55:29.742Z,82.90
2018-12-31T13:57:58.366Z,83.19
2018-12-31T14:00:27.125Z,83.20
2018-12-31T14:05:25.983Z,83.84
2018-12-31T14:07:54.582Z,84.11
2018-12-31T14:10:23.140Z,84.39
2018-12-31T14:12:52.726Z,84.62
2018-12-31T14:15:22.163Z,84.83
2018-12-31T14:17:50.616Z,85.10
2018-12-31T14:20:19.294Z,85.42
2018-12-31T14:22:47.931Z,85.55
2018-12-31T14:25:16.610Z,85.76
2018-12-31T14:27:45.710Z,85.92
2018-12-31T14:30:14.257Z,86.36
2018-12-31T14:32:42.855Z,86.53
2018-12-31T14:35:11.626Z,86.92
2018-12-31T14:37:40.271Z,87.46
2018-12-31T14:40:10.688Z,88.46
2018-12-31T14:42:39.472Z,88.74
2018-12-31T14:45:08.205Z,89.49
2018-12-31T14:47:36.696Z,89.89
2018-12-31T14:50:45.183Z,90.36
2018-12-31T14:53:13.773Z,91.44
2018-12-31T14:55:42.764Z,91.95
2018-12-31T14:58:13.224Z,92.71
2018-12-31T15:00:42.101Z,93.03
2018-12-31T15:03:10.691Z,93.88
2018-12-31T15:05:39.261Z,93.57
2018-12-31T15:08:27.214Z,94.45
2018-12-31T15:10:55.698Z,94.96
2018-12-31T15:13:24.292Z,95.85
2018-12-31T15:15:52.830Z,95.79
2018-12-31T15:18:21.485Z,96.28
2018-12-31T15:20:49.963Z,96.47
2018-12-31T15:23:18.538Z,96.51
2018-12-31T15:25:47.483Z,97.06
2018-12-31T15:28:16.115Z,97.78
2018-12-31T15:30:44.668Z,97.73
2018-12-31T15:33:54.830Z,98.33
2018-12-31T15:36:23.359Z,98.69
2018-12-31T15:38:53.610Z,99.09
2018-12-31T15:41:22.174Z,99.59
2018-12-31T15:43:50.689Z,99.75
2018-12-31T15:46:20.427Z,100.00
2018-12-31T15:48:49.541Z,100.00
2018-12-31T15:51:17.931Z,100.00
2018-12-31T15:53:46.522Z,100.00
2018-12-31T15:56:15.020Z,100.00
2018-12-31T15:58:43.468Z,100.00
2018-12-31T16:01:11.981Z,100.00
2018-12-31T16:03:42.301Z,100.00
2018-12-31T16:06:11.150Z,100.00
2018-12-31T16:08:39.687Z,100.00
2018-12-31T16:11:08.324Z,100.00
2018-12-31T16:13:36.931Z,100.00
2018-12-31T16:16:07.226Z,100.00
2018-12-31T16:18:35.727Z,100.00
2018-12-31T16:21:05.855Z,100.00
2018-12-31T16:23:34.436Z,100.00
2018-12-31T16:26:02.981Z,100.00
2018-12-31T16:28:33.736Z,100.00
2018-12-31T16:31:42.508Z,100.00
2018-12-31T16:34:12.990Z,100.00
2018-12-31T16:36:41.616Z,100.00
2018-12-31T16:39:10.348Z,100.00
2018-12-31T16:42:18.854Z,100.00
2018-12-31T16:44:47.393Z,100.00
2018-12-31T16:47:15.924Z,100.00
2018-12-31T16:52:33.964Z,100.00
2018-12-31T16:55:02.512Z,100.00
2018-12-31T16:57:31.293Z,100.00
2018-12-31T16:59:59.803Z,100.00
2018-12-31T17:02:28.815Z,100.00
2018-12-31T17:05:37.247Z,100.00
2018-12-31T17:08:06.312Z,100.00
2018-12-31T17:10:34.930Z,100.00
2018-12-31T17:13:03.516Z,100.00
2018-12-31T17:15:32.155Z,100.00
2018-12-31T17:18:00.722Z,100.00
2018-12-31T17:20:29.362Z,100.00
2018-12-31T17:22:57.891Z,100.00
2018-12-31T17:25:26.497Z,100.00
2018-12-31T17:27:55.279Z,100.00
2018-12-31T17:30:23.792Z,100.00
2018-12-31T17:32:52.356Z,100.00
2018-12-31T17:35:20.913Z,100.00
2018-12-31T17:37:49.454Z,100.00
2018-12-31T17:40:18.161Z,100.00
2018-12-31T17:42:46.616Z,100.00
2018-12-31T17:45:22.789Z,100.00
2018-12-31T17:47:45.375Z,100.00
2018-12-31T17:50:13.946Z,100.00
2018-12-31T17:52:42.490Z,100.00
2018-12-31T17:55:11.064Z,100.00
2018-12-31T17:57:39.938Z,100.00
2018-12-31T18:00:50.219Z,100.00
2018-12-31T18:03:18.759Z,100.00
2018-12-31T18:05:49.014Z,100.00
2018-12-31T18:08:17.412Z,100.00
2018-12-31T18:10:45.859Z,100.00
2018-12-31T18:13:14.487Z,100.00
2018-12-31T18:15:43.329Z,100.00
2018-12-31T18:18:12.124Z,100.00
2018-12-31T18:20:40.942Z,100.00
2018-12-31T18:23:09.515Z,100.00
2018-12-31T18:25:37.984Z,100.00
2018-12-31T18:28:06.632Z,100.00
2018-12-31T18:30:35.244Z,100.00
2018-12-31T18:33:03.822Z,100.00
2018-12-31T18:35:32.202Z,100.00
2018-12-31T18:38:01.114Z,100.00
2018-12-31T18:40:29.671Z,100.00
2018-12-31T18:42:58.097Z,100.00
2018-12-31T18:45:26.600Z,100.00
2018-12-31T18:47:55.141Z,100.00
2018-12-31T18:50:23.627Z,100.00
2018-12-31T18:52:52.176Z,100.00
2018-12-31T18:55:20.790Z,100.00
2018-12-31T18:57:51.349Z,100.00
2018-12-31T19:00:20.214Z,100.00
2018-12-31T19:02:48.998Z,100.00
2018-12-31T19:05:17.503Z,100.00
2018-12-31T19:07:46.047Z,100.00
2018-12-31T19:10:16.357Z,100.00
2018-12-31T19:12:44.903Z,100.00
2018-12-31T19:15:13.314Z,100.00
2018-12-31T19:17:42.222Z,100.00
2018-12-31T19:20:11.147Z,100.00
2018-12-31T19:22:39.690Z,100.00
2018-12-31T19:25:08.263Z,100.00
2018-12-31T19:27:37.205Z,100.00
2018-12-31T19:30:45.631Z,100.00
2018-12-31T19:33:14.128Z,100.00
2018-12-31T19:36:01.930Z,100.00
2018-12-31T19:38:30.463Z,100.00
2018-12-31T19:40:58.947Z,100.00
2018-12-31T19:43:27.497Z,100.00
2018-12-31T19:45:56.488Z,100.00
2018-12-31T19:48:24.954Z,100.00
2018-12-31T19:51:01.160Z,100.00
2018-12-31T19:53:29.588Z,100.00
2018-12-31T19:55:58.260Z,100.00
2018-12-31T19:58:26.983Z,100.00
2018-12-31T20:00:55.626Z,100.00
2018-12-31T20:03:24.269Z,100.00
2018-12-31T20:05:52.787Z,100.00
2018-12-31T20:08:21.375Z,100.00
2018-12-31T20:10:49.955Z,100.00
2018-12-31T20:13:18.603Z,100.00
2018-12-31T20:15:48.713Z,100.00
2018-12-31T20:18:17.496Z,100.00
2018-12-31T20:20:46.062Z,100.00
2018-12-31T20:23:14.591Z,100.00
2018-12-31T20:25:43.299Z,100.00
2018-12-31T20:28:12.148Z,100.00
2018-12-31T20:30:42.313Z,100.00
2018-12-31T20:33:10.854Z,100.00
2018-12-31T20:35:39.302Z,100.00
2018-12-31T20:38:07.843Z,100.00
2018-12-31T20:40:36.312Z,100.00
2018-12-31T20:43:04.843Z,100.00
2018-12-31T20:45:35.026Z,100.00
2018-12-31T20:48:03.517Z,100.00
2018-12-31T20:50:31.882Z,100.00
2018-12-31T20:53:00.471Z,100.00
2018-12-31T20:55:29.255Z,100.00
2018-12-31T20:57:57.705Z,100.00
2018-12-31T21:00:26.261Z,100.00
2018-12-31T21:02:54.791Z,100.00
2018-12-31T21:05:23.364Z,100.00
2018-12-31T21:07:51.836Z,100.00
2018-12-31T21:10:20.295Z,100.00
2018-12-31T21:12:48.953Z,100.00
2018-12-31T21:15:17.492Z,100.00
2018-12-31T21:17:46.052Z,100.00
2018-12-31T21:20:14.665Z,100.00
2018-12-31T21:22:43.169Z,100.00
2018-12-31T21:25:13.344Z,100.00
2018-12-31T21:27:41.797Z,100.00
2018-12-31T21:30:50.263Z,100.00
2018-12-31T21:33:18.841Z,100.00
2018-12-31T21:35:47.661Z,100.00
2018-12-31T21:38:16.464Z,100.00
2018-12-31T21:40:44.902Z,100.00
2018-12-31T21:43:13.500Z,100.00
2018-12-31T21:45:42.142Z,100.00
2018-12-31T21:48:10.670Z,100.00
2018-12-31T21:50:39.240Z,100.00
2018-12-31T21:53:07.876Z,100.00
2018-12-31T21:55:36.428Z,100.00
2018-12-31T21:58:05.455Z,100.00
2018-12-31T22:00:33.867Z,100.00
2018-12-31T22:03:02.757Z,100.00
2018-12-31T22:05:31.346Z,100.00
2018-12-31T22:07:59.818Z,100.00
2018-12-31T22:10:28.291Z,100.00
2018-12-31T22:12:56.776Z,100.00
2018-12-31T22:15:25.225Z,100.00
2018-12-31T22:17:54.019Z,100.00
2018-12-31T22:20:22.595Z,100.00
2018-12-31T22:22:51.150Z,100.00
2018-12-31T22:25:21.353Z,100.00
2018-12-31T22:27:49.908Z,100.00
2018-12-31T22:30:18.273Z,100.00
2018-12-31T22:32:46.855Z,100.00
2018-12-31T22:35:15.400Z,100.00
2018-12-31T22:37:45.560Z,100.00
2018-12-31T22:40:14.134Z,100.00
2018-12-31T22:42:42.646Z,100.00
2018-12-31T22:45:11.227Z,100.00
2018-12-31T22:47:39.680Z,100.00
2018-12-31T22:50:48.123Z,100.00
2018-12-31T22:53:16.667Z,100.00
2018-12-31T22:55:45.268Z,100.00
2018-12-31T22:58:13.725Z,100.00
2018-12-31T23:03:21.275Z,100.00
2018-12-31T23:06:09.388Z,100.00
2018-12-31T23:08:38.117Z,100.00
2018-12-31T23:11:06.778Z,100.00
2018-12-31T23:13:35.413Z,100.00
2018-12-31T23:16:03.972Z,100.00
2018-12-31T23:18:32.517Z,100.00
2018-12-31T23:21:01.464Z,100.00
2018-12-31T23:23:30.011Z,99.78
2018-12-31T23:25:58.937Z,98.59
2018-12-31T23:28:27.590Z,98.26
2018-12-31T23:30:57.856Z,97.67
2018-12-31T23:33:26.842Z,97.28
2018-12-31T23:35:55.480Z,97.51
2018-12-31T23:38:24.038Z,97.65
2018-12-31T23:40:52.620Z,98.18
2018-12-31T23:43:22.826Z,98.13
2018-12-31T23:45:51.434Z,98.59
2018-12-31T23:48:19.943Z,98.66
2018-12-31T23:50:48.353Z,98.48
2018-12-31T23:53:16.755Z,98.48
2018-12-31T23:55:45.263Z,98.74
2018-12-31T23:58:13.722Z,98.59
